createdAt,value
2018-06-22T00:02:08.141Z,101038.62
2018-06-22T00:04:37.532Z,101037.17
2018-06-22T00:07:06.956Z,101034.03
2018-06-22T00:09:36.483Z,101044.70
2018-06-22T00:12:06.125Z,101037.17
2018-06-22T00:14:35.481Z,101037.55
2018-06-22T00:17:04.928Z,101042.99
2018-06-22T00:19:34.239Z,101042.52
2018-06-22T00:22:03.596Z,101041.18
2018-06-22T00:24:33.529Z,101035.95
2018-06-22T00:27:02.845Z,101038.14
2018-06-22T00:29:33.254Z,101035.09
2018-06-22T00:32:02.861Z,101041.28
2018-06-22T00:34:32.165Z,101035.09
2018-06-22T00:37:01.377Z,101034.72
2018-06-22T00:39:30.662Z,101038.14
2018-06-22T00:41:59.862Z,101037.17
2018-06-22T00:44:29.069Z,101033.45
2018-06-22T00:46:58.279Z,101031.26
2018-06-22T00:49:31.566Z,101035.53
2018-06-22T00:52:01.358Z,101036.12
2018-06-22T00:54:30.759Z,101036.80
2018-06-22T00:57:00.008Z,101033.92
2018-06-22T00:59:29.280Z,101031.73
2018-06-22T01:01:59.528Z,101039.74
2018-06-22T01:04:28.837Z,101027.89
2018-06-22T01:06:58.079Z,101043.64
2018-06-22T01:09:27.325Z,101032.85
2018-06-22T01:11:56.516Z,101035.31
2018-06-22T01:14:25.870Z,101039.89
2018-06-22T01:16:55.280Z,101028.25
2018-06-22T01:19:24.517Z,101036.42
2018-06-22T01:21:53.825Z,101030.71
2018-06-22T01:24:23.117Z,101028.20
2018-06-22T01:26:52.379Z,101021.53
2018-06-22T01:29:27.035Z,101023.55
2018-06-22T01:31:56.237Z,101021.03
2018-06-22T01:34:25.499Z,101023.38
2018-06-22T01:36:54.837Z,101022.83
2018-06-22T01:39:24.141Z,101026.04
2018-06-22T01:41:53.413Z,101016.00
2018-06-22T01:44:22.816Z,101011.43
2018-06-22T01:46:52.126Z,101015.59
2018-06-22T01:49:21.415Z,101018.59
2018-06-22T01:51:50.774Z,101017.81
2018-06-22T01:54:20.016Z,101010.97
2018-06-22T01:56:49.232Z,101021.92
2018-06-22T01:59:18.546Z,101027.37
2018-06-22T02:01:47.873Z,101022.41
2018-06-22T02:04:17.249Z,101024.33
2018-06-22T02:06:46.625Z,101023.58
2018-06-22T02:09:16.169Z,101023.80
2018-06-22T02:11:46.197Z,101024.17
2018-06-22T02:14:15.435Z,101032.55
2018-06-22T02:16:44.654Z,101026.84
2018-06-22T02:19:13.941Z,101029.88
2018-06-22T02:21:43.367Z,101027.96
2018-06-22T02:24:12.751Z,101031.59
2018-06-22T02:26:42.218Z,101027.39
2018-06-22T02:29:11.671Z,101028.73
2018-06-22T02:31:41.621Z,101019.01
2018-06-22T02:34:11.036Z,101021.67
2018-06-22T02:36:40.733Z,101022.64
2018-06-22T02:39:11.900Z,101015.38
2018-06-22T02:41:41.798Z,101023.20
2018-06-22T02:44:11.471Z,101028.44
2018-06-22T02:46:41.015Z,101028.81
2018-06-22T02:49:10.731Z,101025.08
2018-06-22T02:51:40.209Z,101037.58
2018-06-22T02:54:09.743Z,101044.84
2018-06-22T02:56:39.215Z,101039.50
2018-06-22T02:59:08.581Z,101041.00
2018-06-22T03:01:37.944Z,101043.59
2018-06-22T03:04:07.564Z,101039.00
2018-06-22T03:06:37.000Z,101043.38
2018-06-22T03:09:07.968Z,101049.26
2018-06-22T03:11:37.507Z,101047.92
2018-06-22T03:14:06.984Z,101040.20
2018-06-22T03:16:36.823Z,101037.05
2018-06-22T03:19:06.393Z,101033.84
2018-06-22T03:21:35.941Z,101041.20
2018-06-22T03:24:05.607Z,101035.75
2018-06-22T03:26:35.051Z,101036.23
2018-06-22T03:29:04.393Z,101037.56
2018-06-22T03:31:34.332Z,101042.16
2018-06-22T03:34:03.634Z,101042.91
2018-06-22T03:36:34.130Z,101059.91
2018-06-22T03:39:03.773Z,101052.41
2018-06-22T03:41:33.102Z,101048.14
2018-06-22T03:44:02.459Z,101055.09
2018-06-22T03:46:31.787Z,101057.23
2018-06-22T03:49:01.054Z,101055.67
2018-06-22T03:51:30.345Z,101056.42
2018-06-22T03:53:59.678Z,101049.64
2018-06-22T03:56:28.993Z,101048.97
2018-06-22T03:58:58.196Z,101047.42
2018-06-22T04:01:28.079Z,101041.70
2018-06-22T04:03:57.430Z,101055.44
2018-06-22T04:06:26.710Z,101046.23
2018-06-22T04:08:56.311Z,101045.86
2018-06-22T04:11:25.680Z,101044.23
2018-06-22T04:13:54.958Z,101048.72
2018-06-22T04:16:24.332Z,101053.27
2018-06-22T04:18:54.708Z,101051.14
2018-06-22T04:21:24.073Z,101052.27
2018-06-22T04:23:53.519Z,101061.95
2018-06-22T04:26:23.043Z,101057.58
2018-06-22T04:28:52.277Z,101066.08
2018-06-22T04:31:21.941Z,101071.95
2018-06-22T04:33:51.328Z,101068.64
2018-06-22T04:36:20.692Z,101068.42
2018-06-22T04:38:50.149Z,101073.84
2018-06-22T04:41:19.505Z,101061.11
2018-06-22T04:43:48.857Z,101067.57
2018-06-22T04:46:18.568Z,101068.31
2018-06-22T04:48:48.079Z,101068.13
2018-06-22T04:51:17.518Z,101074.58
2018-06-22T04:53:46.885Z,101070.20
2018-06-22T04:56:16.212Z,101073.98
2018-06-22T04:58:45.446Z,101080.03
2018-06-22T05:01:14.956Z,101077.09
2018-06-22T05:03:44.326Z,101078.05
2018-06-22T05:06:13.625Z,101078.20
2018-06-22T05:08:43.017Z,101085.38
2018-06-22T05:11:12.570Z,101084.03
2018-06-22T05:13:41.890Z,101084.52
2018-06-22T05:16:11.313Z,101081.58
2018-06-22T05:18:40.997Z,101092.06
2018-06-22T05:21:10.413Z,101092.95
2018-06-22T05:23:40.135Z,101095.37
2018-06-22T05:26:09.742Z,101098.63
2018-06-22T05:28:39.208Z,101100.88
2018-06-22T05:31:08.628Z,101104.72
2018-06-22T05:33:38.007Z,101111.27
2018-06-22T05:36:07.336Z,101110.56
2018-06-22T05:38:37.354Z,101112.07
2018-06-22T05:41:06.959Z,101112.92
2018-06-22T05:43:36.356Z,101113.89
2018-06-22T05:46:06.269Z,101115.14
2018-06-22T05:48:35.765Z,101124.20
2018-06-22T05:51:05.534Z,101129.02
2018-06-22T05:53:35.269Z,101131.45
2018-06-22T05:56:04.916Z,101124.89
2018-06-22T05:58:34.439Z,101133.91
2018-06-22T06:01:04.544Z,101140.30
2018-06-22T06:03:34.247Z,101142.05
2018-06-22T06:06:03.628Z,101146.81
2018-06-22T06:08:33.044Z,101151.48
2018-06-22T06:11:02.416Z,101152.89
2018-06-22T06:13:31.627Z,101152.36
2018-06-22T06:16:01.062Z,101154.67
2018-06-22T06:18:30.324Z,101155.26
2018-06-22T06:20:59.569Z,101160.35
2018-06-22T06:23:28.952Z,101160.27
2018-06-22T06:25:58.253Z,101171.05
2018-06-22T06:28:27.841Z,101166.35
2018-06-22T06:30:57.234Z,101178.64
2018-06-22T06:33:26.568Z,101189.09
2018-06-22T06:35:55.945Z,101187.47
2018-06-22T06:38:26.067Z,101185.76
2018-06-22T06:40:55.361Z,101194.73
2018-06-22T06:43:24.755Z,101196.70
2018-06-22T06:45:54.114Z,101203.41
2018-06-22T06:48:23.449Z,101198.08
2018-06-22T06:50:52.902Z,101201.40
2018-06-22T06:53:22.168Z,101202.19
2018-06-22T06:55:51.592Z,101211.22
2018-06-22T06:58:20.826Z,101212.09
2018-06-22T07:00:56.391Z,101209.53
2018-06-22T07:03:25.704Z,101212.78
2018-06-22T07:05:54.987Z,101212.78
2018-06-22T07:08:24.380Z,101214.64
2018-06-22T07:10:53.806Z,101223.52
2018-06-22T07:13:23.057Z,101222.91
2018-06-22T07:15:52.353Z,101214.76
2018-06-22T07:18:21.636Z,101217.58
2018-06-22T07:20:50.873Z,101229.08
2018-06-22T07:23:20.191Z,101243.42
2018-06-22T07:25:49.448Z,101243.30
2018-06-22T07:28:18.839Z,101248.05
2018-06-22T07:30:48.529Z,101251.14
2018-06-22T07:33:17.792Z,101257.98
2018-06-22T07:35:47.466Z,101251.00
2018-06-22T07:38:16.944Z,101252.34
2018-06-22T07:40:46.263Z,101250.78
2018-06-22T07:43:15.806Z,101253.83
2018-06-22T07:45:45.252Z,101259.95
2018-06-22T07:48:14.973Z,101255.88
2018-06-22T07:50:44.582Z,101252.15
2018-06-22T07:53:14.103Z,101254.43
2018-06-22T07:55:43.580Z,101256.64
2018-06-22T07:58:13.140Z,101252.47
2018-06-22T08:00:42.764Z,101253.13
2018-06-22T08:03:12.150Z,101258.78
2018-06-22T08:05:41.916Z,101261.08
2018-06-22T08:08:11.289Z,101265.87
2018-06-22T08:10:40.911Z,101265.44
2018-06-22T08:13:11.726Z,101265.16
2018-06-22T08:15:41.678Z,101262.86
2018-06-22T08:18:11.299Z,101265.21
2018-06-22T08:20:40.800Z,101273.58
2018-06-22T08:23:10.709Z,101264.33
2018-06-22T08:25:40.375Z,101268.25
2018-06-22T08:28:10.394Z,101278.94
2018-06-22T08:30:40.585Z,101281.50
2018-06-22T08:33:10.229Z,101291.77
2018-06-22T08:35:41.032Z,101286.97
2018-06-22T08:38:10.712Z,101293.07
2018-06-22T08:40:40.500Z,101293.84
2018-06-22T08:43:10.158Z,101292.95
2018-06-22T08:45:40.306Z,101290.30
2018-06-22T08:48:10.052Z,101308.48
2018-06-22T08:50:39.722Z,101298.66
2018-06-22T08:53:10.322Z,101297.95
2018-06-22T08:55:40.348Z,101304.84
2018-06-22T08:58:10.229Z,101299.25
2018-06-22T09:00:40.396Z,101300.76
2018-06-22T09:03:10.496Z,101305.78
2018-06-22T09:05:40.384Z,101300.34
2018-06-22T09:08:10.234Z,101296.41
2018-06-22T09:10:40.380Z,101304.36
2018-06-22T09:13:11.042Z,101308.22
2018-06-22T09:15:40.784Z,101310.67
2018-06-22T09:18:10.633Z,101309.61
2018-06-22T09:20:40.251Z,101316.92
2018-06-22T09:23:10.546Z,101315.03
2018-06-22T09:25:40.313Z,101308.44
2018-06-22T09:28:10.244Z,101312.30
2018-06-22T09:30:40.442Z,101322.94
2018-06-22T09:33:10.247Z,101314.86
2018-06-22T09:35:40.101Z,101316.00
2018-06-22T09:38:09.870Z,101320.49
2018-06-22T09:40:39.407Z,101319.59
2018-06-22T09:43:09.038Z,101314.89
2018-06-22T09:45:38.820Z,101323.13
2018-06-22T09:48:08.607Z,101318.36
2018-06-22T09:50:38.696Z,101331.20
2018-06-22T09:53:08.671Z,101336.27
2018-06-22T09:55:38.609Z,101327.39
2018-06-22T09:58:09.935Z,101320.03
2018-06-22T10:00:39.997Z,101330.31
2018-06-22T10:03:09.641Z,101341.63
2018-06-22T10:05:39.166Z,101335.13
2018-06-22T10:08:08.925Z,101330.53
2018-06-22T10:10:38.521Z,101333.48
2018-06-22T10:13:08.102Z,101334.54
2018-06-22T10:15:37.790Z,101329.70
2018-06-22T10:18:07.472Z,101338.77
2018-06-22T10:20:37.138Z,101345.55
2018-06-22T10:23:07.386Z,101345.66
2018-06-22T10:25:37.344Z,101338.87
2018-06-22T10:28:07.163Z,101337.84
2018-06-22T10:30:36.915Z,101349.48
2018-06-22T10:33:06.935Z,101346.63
2018-06-22T10:35:36.757Z,101349.80
2018-06-22T10:38:06.665Z,101353.61
2018-06-22T10:40:36.487Z,101372.08
2018-06-22T10:43:06.960Z,101368.14
2018-06-22T10:45:36.573Z,101373.45
2018-06-22T10:48:06.202Z,101372.42
2018-06-22T10:50:36.235Z,101378.25
2018-06-22T10:53:06.066Z,101374.33
2018-06-22T10:55:35.478Z,101369.14
2018-06-22T10:58:05.778Z,101379.48
2018-06-22T11:00:35.368Z,101379.74
2018-06-22T11:03:05.285Z,101382.94
2018-06-22T11:05:35.426Z,101387.52
2018-06-22T11:08:05.209Z,101390.97
2018-06-22T11:10:36.150Z,101382.16
2018-06-22T11:13:06.077Z,101396.06
2018-06-22T11:15:36.720Z,101383.26
2018-06-22T11:18:06.900Z,101386.89
2018-06-22T11:20:36.642Z,101384.30
2018-06-22T11:23:06.458Z,101391.13
2018-06-22T11:25:36.359Z,101395.05
2018-06-22T11:28:06.481Z,101397.45
2018-06-22T11:30:36.574Z,101396.47
2018-06-22T11:33:06.123Z,101394.90
2018-06-22T11:35:36.302Z,101405.38
2018-06-22T11:38:05.898Z,101408.50
2018-06-22T11:40:35.638Z,101414.84
2018-06-22T11:43:06.794Z,101417.94
2018-06-22T11:45:36.788Z,101423.02
2018-06-22T11:48:06.592Z,101417.53
2018-06-22T11:50:36.231Z,101413.69
2018-06-22T11:53:06.041Z,101422.27
2018-06-22T11:55:36.036Z,101424.95
2018-06-22T11:58:06.152Z,101418.80
2018-06-22T12:00:36.150Z,101409.38
2018-06-22T12:03:06.371Z,101426.02
2018-06-22T12:05:36.156Z,101412.87
2018-06-22T12:08:06.663Z,101416.64
2018-06-22T12:10:36.288Z,101421.55
2018-06-22T12:13:06.242Z,101417.14
2018-06-22T12:15:36.267Z,101414.39
2018-06-22T12:18:06.702Z,101427.70
2018-06-22T12:20:36.513Z,101426.52
2018-06-22T12:23:06.949Z,101429.30
2018-06-22T12:25:37.266Z,101431.25
2018-06-22T12:28:07.641Z,101444.55
2018-06-22T12:30:38.175Z,101439.47
2018-06-22T12:33:08.698Z,101445.28
2018-06-22T12:35:38.250Z,101446.45
2018-06-22T12:38:08.093Z,101443.92
2018-06-22T12:40:37.830Z,101448.59
2018-06-22T12:43:07.486Z,101441.50
2018-06-22T12:45:37.418Z,101448.69
2018-06-22T12:48:07.731Z,101459.48
2018-06-22T12:50:37.609Z,101454.06
2018-06-22T12:53:07.513Z,101448.69
2018-06-22T12:55:37.334Z,101456.07
2018-06-22T12:58:07.109Z,101456.07
2018-06-22T13:00:36.789Z,101464.91
2018-06-22T13:03:06.289Z,101463.52
2018-06-22T13:05:36.244Z,101461.33
2018-06-22T13:08:06.640Z,101465.36
2018-06-22T13:10:36.095Z,101467.00
2018-06-22T13:13:05.852Z,101469.86
2018-06-22T13:15:36.180Z,101472.39
2018-06-22T13:18:06.256Z,101459.30
2018-06-22T13:20:36.407Z,101459.40
2018-06-22T13:23:06.582Z,101457.24
2018-06-22T13:25:36.924Z,101458.44
2018-06-22T13:28:07.598Z,101451.90
2018-06-22T13:30:37.630Z,101469.00
2018-06-22T13:33:07.422Z,101468.70
2018-06-22T13:35:37.290Z,101477.03
2018-06-22T13:38:07.320Z,101476.97
2018-06-22T13:40:37.361Z,101485.44
2018-06-22T13:43:06.967Z,101476.30
2018-06-22T13:45:36.805Z,101480.12
2018-06-22T13:48:06.924Z,101492.72
2018-06-22T13:50:36.774Z,101499.66
2018-06-22T13:53:06.595Z,101492.13
2018-06-22T13:55:36.792Z,101481.04
2018-06-22T13:58:06.505Z,101487.77
2018-06-22T14:00:36.838Z,101487.55
2018-06-22T14:03:06.852Z,101485.13
2018-06-22T14:05:41.637Z,101486.56
2018-06-22T14:08:11.250Z,101483.02
2018-06-22T14:10:40.713Z,101497.04
2018-06-22T14:13:10.195Z,101493.55
2018-06-22T14:15:39.622Z,101480.52
2018-06-22T14:18:13.068Z,101484.36
2018-06-22T14:20:42.727Z,101489.28
2018-06-22T14:23:12.373Z,101505.70
2018-06-22T14:25:42.298Z,101502.62
2018-06-22T14:28:11.840Z,101512.44
2018-06-22T14:30:41.449Z,101512.52
2018-06-22T14:33:17.882Z,101518.22
2018-06-22T14:35:50.782Z,101511.14
2018-06-22T14:38:23.334Z,101510.45
2018-06-22T14:40:53.345Z,101522.52
2018-06-22T14:43:23.790Z,101521.44
2018-06-22T14:45:53.104Z,101511.52
2018-06-22T14:48:22.856Z,101515.42
2018-06-22T14:50:52.157Z,101524.84
2018-06-22T14:53:27.682Z,101513.12
2018-06-22T14:56:03.020Z,101517.74
2018-06-22T14:58:37.626Z,101514.05
2018-06-22T15:01:12.757Z,101527.41
2018-06-22T15:03:47.756Z,101526.92
2018-06-22T15:06:22.311Z,101512.98
2018-06-22T15:08:51.693Z,101525.57
2018-06-22T15:11:21.188Z,101521.89
2018-06-22T15:13:50.601Z,101534.90
2018-06-22T15:16:20.116Z,101535.05
2018-06-22T15:18:49.592Z,101542.42
2018-06-22T15:21:19.060Z,101542.68
2018-06-22T15:23:48.445Z,101550.75
2018-06-22T15:26:17.737Z,101546.70
2018-06-22T15:28:47.321Z,101550.12
2018-06-22T15:31:16.824Z,101541.94
2018-06-22T15:33:51.373Z,101542.69
2018-06-22T15:36:25.877Z,101557.01
2018-06-22T15:39:00.495Z,101547.94
2018-06-22T15:41:35.021Z,101550.00
2018-06-22T15:44:10.301Z,101554.88
2018-06-22T15:46:45.323Z,101566.70
2018-06-22T15:49:20.203Z,101563.61
2018-06-22T15:51:55.185Z,101558.72
2018-06-22T15:54:29.958Z,101562.23
2018-06-22T15:56:59.314Z,101560.52
2018-06-22T15:59:28.677Z,101551.01
2018-06-22T16:02:02.137Z,101555.33
2018-06-22T16:04:31.455Z,101545.05
2018-06-22T16:07:01.857Z,101552.84
2018-06-22T16:09:31.339Z,101557.92
2018-06-22T16:12:06.196Z,101549.30
2018-06-22T16:14:40.965Z,101549.64
2018-06-22T16:17:15.650Z,101553.09
2018-06-22T16:19:50.987Z,101548.34
2018-06-22T16:22:25.815Z,101551.03
2018-06-22T16:25:00.843Z,101543.92
2018-06-22T16:27:31.868Z,101555.23
2018-06-22T16:30:01.273Z,101556.09
2018-06-22T16:32:30.590Z,101558.09
2018-06-22T16:34:59.995Z,101563.73
2018-06-22T16:37:29.351Z,101563.73
2018-06-22T16:39:58.594Z,101559.70
2018-06-22T16:42:28.033Z,101569.34
2018-06-22T16:44:57.354Z,101552.02
2018-06-22T16:47:26.770Z,101566.80
2018-06-22T16:49:56.037Z,101559.95
2018-06-22T16:52:25.713Z,101555.44
2018-06-22T16:54:55.091Z,101553.17
2018-06-22T16:57:24.410Z,101553.22
2018-06-22T16:59:53.956Z,101557.45
2018-06-22T17:02:23.271Z,101555.53
2018-06-22T17:04:52.628Z,101552.61
2018-06-22T17:07:27.621Z,101560.30
2018-06-22T17:10:02.202Z,101557.81
2018-06-22T17:12:37.750Z,101555.13
2018-06-22T17:15:12.757Z,101556.88
2018-06-22T17:17:47.929Z,101553.83
2018-06-22T17:20:17.355Z,101555.59
2018-06-22T17:22:46.759Z,101538.31
2018-06-22T17:25:17.854Z,101554.69
2018-06-22T17:27:47.477Z,101543.81
2018-06-22T17:30:17.231Z,101546.17
2018-06-22T17:32:47.289Z,101547.84
2018-06-22T17:35:16.902Z,101553.71
2018-06-22T17:37:46.336Z,101552.73
2018-06-22T17:40:16.716Z,101549.31
2018-06-22T17:42:46.776Z,101556.52
2018-06-22T17:45:16.743Z,101551.02
2018-06-22T17:47:46.520Z,101561.17
2018-06-22T17:50:21.201Z,101557.98
2018-06-22T17:52:50.581Z,101570.94
2018-06-22T17:55:20.006Z,101555.13
2018-06-22T17:57:49.518Z,101550.84
2018-06-22T18:00:24.393Z,101563.67
2018-06-22T18:02:58.872Z,101567.22
2018-06-22T18:05:33.625Z,101557.02
2018-06-22T18:08:03.595Z,101567.75
2018-06-22T18:10:38.442Z,101570.62
2018-06-22T18:13:08.247Z,101569.77
2018-06-22T18:15:38.063Z,101575.77
2018-06-22T18:18:07.936Z,101570.23
2018-06-22T18:20:37.547Z,101568.80
2018-06-22T18:23:07.324Z,101564.20
2018-06-22T18:25:36.998Z,101577.09
2018-06-22T18:28:07.635Z,101588.74
2018-06-22T18:30:37.335Z,101575.63
2018-06-22T18:33:07.275Z,101571.86
2018-06-22T18:35:37.187Z,101573.88
2018-06-22T18:38:06.818Z,101573.48
2018-06-22T18:40:36.734Z,101573.86
2018-06-22T18:43:06.937Z,101567.05
2018-06-22T18:45:36.441Z,101566.48
2018-06-22T18:48:06.221Z,101562.09
2018-06-22T18:50:35.887Z,101571.48
2018-06-22T18:53:10.980Z,101583.56
2018-06-22T18:57:48.340Z,101568.09
2018-06-22T19:00:23.153Z,101557.02
2018-06-22T19:02:57.754Z,101549.09
2018-06-22T19:05:27.387Z,101542.27
2018-06-22T19:07:56.850Z,101560.00
2018-06-22T19:10:26.337Z,101558.55
2018-06-22T19:12:55.764Z,101567.34
2018-06-22T19:15:25.177Z,101548.19
2018-06-22T19:17:54.612Z,101551.24
2018-06-22T19:20:24.211Z,101554.19
2018-06-22T19:22:53.668Z,101552.95
2018-06-22T19:25:23.041Z,101559.77
2018-06-22T19:27:52.394Z,101557.88
2018-06-22T19:30:21.882Z,101554.66
2018-06-22T19:32:51.139Z,101547.02
2018-06-22T19:35:21.068Z,101545.83
2018-06-22T19:37:50.380Z,101557.91
2018-06-22T19:40:19.839Z,101560.32
2018-06-22T19:42:50.369Z,101563.70
2018-06-22T19:45:25.118Z,101571.97
2018-06-22T19:47:59.984Z,101569.65
2018-06-22T19:50:34.380Z,101577.91
2018-06-22T19:53:08.959Z,101573.67
2018-06-22T19:55:39.061Z,101571.77
2018-06-22T19:58:08.669Z,101568.02
2018-06-22T20:00:38.262Z,101583.25
2018-06-22T20:03:07.886Z,101583.36
2018-06-22T20:05:37.784Z,101575.50
2018-06-22T20:08:07.449Z,101578.50
2018-06-22T20:10:37.198Z,101593.43
2018-06-22T20:13:06.624Z,101582.59
2018-06-22T20:15:36.466Z,101597.08
2018-06-22T20:18:06.974Z,101585.97
2018-06-22T20:20:36.474Z,101587.31
2018-06-22T20:23:07.372Z,101591.71
2018-06-22T20:25:42.127Z,101595.14
2018-06-22T20:28:12.013Z,101591.71
2018-06-22T20:30:41.386Z,101585.87
2018-06-22T20:33:11.019Z,101596.23
2018-06-22T20:35:45.996Z,101591.06
2018-06-22T20:38:20.955Z,101587.70
2018-06-22T20:40:55.745Z,101586.78
2018-06-22T20:43:30.472Z,101589.05
2018-06-22T20:46:00.185Z,101593.07
2018-06-22T20:48:34.814Z,101579.29
2018-06-22T20:51:04.352Z,101590.23
2018-06-22T20:53:33.756Z,101596.45
2018-06-22T20:56:03.215Z,101596.23
2018-06-22T20:58:33.595Z,101593.55
2018-06-22T21:01:03.021Z,101592.63
2018-06-22T21:03:32.518Z,101591.55
2018-06-22T21:06:01.935Z,101602.92
2018-06-22T21:08:31.451Z,101602.27
2018-06-22T21:11:00.743Z,101603.88
2018-06-22T21:13:30.059Z,101599.37
2018-06-22T21:15:59.527Z,101602.38
2018-06-22T21:18:28.762Z,101616.05
2018-06-22T21:21:03.997Z,101606.31
2018-06-22T21:23:33.445Z,101606.52
2018-06-22T21:26:02.748Z,101608.62
2018-06-22T21:28:37.371Z,101618.59
2018-06-22T21:31:13.425Z,101625.77
2018-06-22T21:33:48.650Z,101626.27
2018-06-22T21:36:23.224Z,101630.97
2018-06-22T21:38:55.940Z,101620.36
2018-06-22T21:41:25.262Z,101627.64
2018-06-22T21:43:54.832Z,101631.84
2018-06-22T21:46:24.522Z,101626.09
2018-06-22T21:48:53.866Z,101625.55
2018-06-22T21:51:23.438Z,101641.04
2018-06-22T21:53:52.834Z,101637.98
2018-06-22T21:56:24.862Z,101631.22
2018-06-22T21:58:54.296Z,101640.59
2018-06-22T22:01:23.660Z,101609.13
2018-06-22T22:03:52.972Z,101632.38
2018-06-22T22:06:22.418Z,101629.97
2018-06-22T22:08:51.721Z,101640.30
2018-06-22T22:11:21.216Z,101628.08
2018-06-22T22:13:50.813Z,101626.91
2018-06-22T22:16:20.155Z,101617.91
2018-06-22T22:18:49.526Z,101624.43
2018-06-22T22:21:20.952Z,101630.84
2018-06-22T22:23:50.503Z,101619.75
2018-06-22T22:26:20.654Z,101625.59
2018-06-22T22:28:49.994Z,101625.66
2018-06-22T22:31:19.421Z,101627.47
2018-06-22T22:33:48.832Z,101632.83
2018-06-22T22:36:18.198Z,101628.91
2018-06-22T22:38:47.805Z,101628.05
2018-06-22T22:41:17.103Z,101628.63
2018-06-22T22:43:46.484Z,101638.86
2018-06-22T22:46:15.885Z,101634.56
2018-06-22T22:48:45.637Z,101633.49
2018-06-22T22:51:16.524Z,101625.56
2018-06-22T22:53:46.229Z,101628.06
2018-06-22T22:56:15.842Z,101624.05
2018-06-22T22:58:45.665Z,101628.92
2018-06-22T23:01:15.372Z,101629.95
2018-06-22T23:03:45.073Z,101632.47
2018-06-22T23:06:14.768Z,101636.97
2018-06-22T23:08:44.197Z,101634.94
2018-06-22T23:11:13.688Z,101627.48
2018-06-22T23:13:43.358Z,101629.30
2018-06-22T23:16:13.009Z,101623.08
2018-06-22T23:18:43.013Z,101625.38
2018-06-22T23:21:12.556Z,101632.94
2018-06-22T23:23:42.478Z,101620.41
2018-06-22T23:26:12.017Z,101623.84
2018-06-22T23:28:41.969Z,101623.64
2018-06-22T23:31:11.711Z,101618.02
2018-06-22T23:33:41.289Z,101614.58
2018-06-22T23:36:10.780Z,101609.52
2018-06-22T23:38:40.426Z,101610.77
2018-06-22T23:41:10.099Z,101607.23
2018-06-22T23:43:40.319Z,101609.11
2018-06-22T23:46:09.808Z,101609.69
2018-06-22T23:48:39.536Z,101598.23
2018-06-22T23:51:09.075Z,101601.48
2018-06-22T23:53:38.681Z,101592.11
2018-06-22T23:56:08.411Z,101598.05
2018-06-22T23:58:37.992Z,101603.88
